Time;durP1;ratioP1;P1;durP2;ratioP2;P2;SDS_P1;SDS_P2;PMS_P1;PMS_P2;Temp;Humidity;BMP_temperature;BMP_pressure;BME280_temperature;BME280_humidity;BME280_pressure;Samples;Min_cycle;Max_cycle;Signal;HPM_P1;HPM_P2
2023/03/29 00:01:05;;;;;;;3.33;2.33;;;;;;;5.06;83.72;101596.03;5032856;28;20021;-88
2023/03/29 00:03:32;;;;;;;3.58;2.30;;;;;;;5.04;83.68;101602.84;5022765;28;20026;-88
2023/03/29 00:06:04;;;;;;;3.42;2.40;;;;;;;5.05;83.74;101601.13;5012730;28;20026;-88
2023/03/29 00:08:33;;;;;;;2.58;2.10;;;;;;;5.05;83.40;101604.56;5013298;28;20528;-88
2023/03/29 00:10:58;;;;;;;2.90;2.05;;;;;;;5.07;83.34;101591.72;5013273;28;20022;-88
2023/03/29 00:13:25;;;;;;;3.40;2.20;;;;;;;5.07;83.03;101584.88;5013844;28;20072;-88
2023/03/29 00:15:52;;;;;;;4.13;2.20;;;;;;;5.12;83.16;101594.38;5012639;28;20026;-88
2023/03/29 00:18:17;;;;;;;2.78;2.15;;;;;;;5.08;83.04;101580.59;5013608;28;20057;-89
2023/03/29 00:20:42;;;;;;;3.00;2.10;;;;;;;5.09;83.78;101579.75;5013178;28;20041;-87
2023/03/29 00:23:08;;;;;;;5.60;2.57;;;;;;;5.15;83.23;101573.88;5012758;28;20032;-88
2023/03/29 00:25:33;;;;;;;4.20;2.40;;;;;;;5.12;83.40;101582.41;5015411;28;20022;-88
2023/03/29 00:28:01;;;;;;;4.03;2.50;;;;;;;5.13;83.70;101578.13;5016395;28;20382;-88
2023/03/29 00:30:30;;;;;;;3.75;2.38;;;;;;;5.12;84.17;101579.84;5017137;28;20052;-88
2023/03/29 00:32:55;;;;;;;3.80;2.40;;;;;;;5.11;84.46;101567.81;5016383;28;20544;-88
2023/03/29 00:35:20;;;;;;;2.55;2.13;;;;;;;5.11;84.12;101567.81;5016416;28;20109;-88
2023/03/29 00:37:49;;;;;;;2.95;2.30;;;;;;;5.10;83.64;101563.50;5016391;28;20095;-88
2023/03/29 00:40:15;;;;;;;3.65;2.20;;;;;;;5.09;83.85;101565.19;5016807;28;20476;-88
2023/03/29 00:42:43;;;;;;;4.05;2.20;;;;;;;5.10;84.58;101560.91;5016566;28;20022;-88
2023/03/29 00:45:08;;;;;;;3.78;2.28;;;;;;;5.10;84.14;101574.63;5016467;28;20104;-88
2023/03/29 00:47:55;;;;;;;3.25;2.35;;;;;;;5.08;84.96;101560.00;5016727;28;20065;-89
2023/03/29 00:50:44;;;;;;;5.25;2.53;;;;;;;5.12;83.79;101564.41;5016157;28;20050;-88
2023/03/29 00:53:16;;;;;;;3.17;2.30;;;;;;;5.13;83.59;101553.22;5016474;28;20041;-88
2023/03/29 00:55:55;;;;;;;4.20;2.20;;;;;;;5.14;83.60;101559.25;5016432;28;20069;-88
2023/03/29 00:58:29;;;;;;;4.00;2.50;;;;;;;5.19;83.02;101544.75;5016885;28;20026;-88
2023/03/29 01:01:11;;;;;;;5.70;2.67;;;;;;;5.19;83.31;101544.75;5016687;28;20038;-88
2023/03/29 01:03:46;;;;;;;4.25;2.60;;;;;;;5.15;84.01;101536.13;5014129;28;20080;-88
2023/03/29 01:06:17;;;;;;;3.70;2.47;;;;;;;5.15;84.40;101543.84;5016556;28;20044;-88
2023/03/29 01:08:49;;;;;;;4.32;2.35;;;;;;;5.17;84.51;101536.16;5016028;28;20038;-87
2023/03/29 01:11:29;;;;;;;3.90;2.42;;;;;;;5.16;84.44;101535.28;5015847;28;20034;-88
2023/03/29 01:14:02;;;;;;;3.78;2.38;;;;;;;5.18;83.94;101538.75;5016058;28;20046;-88
2023/03/29 01:16:29;;;;;;;3.83;2.40;;;;;;;5.20;84.08;101537.09;5016188;28;20140;-88
2023/03/29 01:18:57;;;;;;;4.90;2.40;;;;;;;5.20;84.37;101533.63;5015650;28;20029;-88
2023/03/29 01:21:31;;;;;;;5.03;2.17;;;;;;;5.24;83.75;101535.44;5016103;28;20080;-89
2023/03/29 01:24:28;;;;;;;3.20;2.20;;;;;;;5.23;84.27;101528.53;5016194;28;20160;-89
2023/03/29 01:27:12;;;;;;;3.15;2.17;;;;;;;5.25;85.12;101524.31;5015765;28;20458;-88
2023/03/29 01:29:42;;;;;;;2.55;1.95;;;;;;;5.24;84.22;101522.56;5016009;28;20034;-88
2023/03/29 01:32:22;;;;;;;3.17;2.10;;;;;;;5.28;84.47;101521.78;5015135;28;20038;-89
2023/03/29 01:34:57;;;;;;;3.63;2.15;;;;;;;5.28;84.51;101516.63;5015832;28;20025;-88
2023/03/29 01:37:35;;;;;;;2.10;1.90;;;;;;;5.28;84.74;101514.06;5014665;28;20056;-88
2023/03/29 01:40:04;;;;;;;2.67;2.10;;;;;;;5.31;84.48;101511.53;5015063;28;20030;-89
2023/03/29 01:42:47;;;;;;;2.80;2.10;;;;;;;5.30;86.92;101499.50;5017098;28;20017;-89
2023/03/29 01:45:12;;;;;;;2.63;2.13;;;;;;;5.31;85.02;101503.81;5015315;28;20045;-88
2023/03/29 01:47:55;;;;;;;3.07;2.00;;;;;;;5.32;85.11;101504.69;5015608;28;20064;-88
2023/03/29 01:50:45;;;;;;;2.67;2.20;;;;;;;5.34;85.16;101508.16;5015425;28;20057;-88
2023/03/29 01:53:23;;;;;;;2.75;1.90;;;;;;;5.34;85.28;101497.88;5014916;28;20026;-88
2023/03/29 01:55:52;;;;;;;2.55;1.88;;;;;;;5.32;85.25;101490.09;5014876;28;20045;-88
2023/03/29 01:58:23;;;;;;;2.33;1.98;;;;;;;5.31;85.30;101487.50;5015136;28;20470;-89
2023/03/29 02:00:53;;;;;;;2.58;1.90;;;;;;;5.34;85.38;101487.56;5014181;28;20018;-88
2023/03/29 02:03:21;;;;;;;2.45;1.90;;;;;;;5.33;86.14;101490.97;5015273;28;20026;-89
2023/03/29 02:05:47;;;;;;;3.40;2.08;;;;;;;5.35;85.39;101481.53;5014758;28;20025;-88
2023/03/29 02:08:15;;;;;;;4.67;2.40;;;;;;;5.34;86.15;101491.00;5015150;28;20025;-87
2023/03/29 02:10:41;;;;;;;3.55;2.30;;;;;;;5.32;86.27;101478.94;5015294;28;20021;-88
2023/03/29 02:13:06;;;;;;;3.37;2.20;;;;;;;5.34;85.77;101475.53;5015353;28;20030;-89
2023/03/29 02:15:31;;;;;;;4.38;2.17;;;;;;;5.36;85.62;101476.44;5014883;28;20093;-89
2023/03/29 02:17:56;;;;;;;2.75;2.10;;;;;;;5.34;85.96;101467.81;5014916;28;20022;-89
2023/03/29 02:20:39;;;;;;;5.15;2.20;;;;;;;5.34;86.00;101464.41;5014948;28;20029;-88
2023/03/29 02:23:17;;;;;;;3.00;2.00;;;;;;;5.37;85.97;101459.28;5015203;28;20424;-89
2023/03/29 02:25:44;;;;;;;3.42;2.17;;;;;;;5.34;86.33;101454.09;5015070;28;20086;-89
2023/03/29 02:28:10;;;;;;;2.83;2.00;;;;;;;5.35;86.29;101453.22;5014618;28;20110;-88
2023/03/29 02:30:52;;;;;;;2.93;2.20;;;;;;;5.39;86.25;101455.91;5032173;28;20474;-88
2023/03/29 02:33:26;;;;;;;3.60;2.30;;;;;;;5.41;86.48;101443.91;5034437;28;20292;-88
2023/03/29 02:36:21;;;;;;;4.72;2.10;;;;;;;5.40;86.38;101446.47;5033824;28;20469;-88
2023/03/29 02:38:46;;;;;;;2.20;2.00;;;;;;;5.43;86.16;101450.78;5032808;28;20042;-88
2023/03/29 02:41:13;;;;;;;3.63;2.20;;;;;;;5.43;86.33;101441.38;5034499;28;20025;-88
2023/03/29 02:43:40;;;;;;;3.30;2.10;;;;;;;5.45;86.65;101431.09;5034082;28;20017;-89
2023/03/29 02:46:06;;;;;;;4.35;2.42;;;;;;;5.47;86.74;101426.84;5033786;28;20125;-89
2023/03/29 02:48:34;;;;;;;3.40;2.30;;;;;;;5.40;86.16;101423.28;5033073;28;20036;-88
2023/03/29 02:51:04;;;;;;;3.72;2.30;;;;;;;5.45;86.38;101420.78;5033843;28;20033;-89
2023/03/29 02:53:37;;;;;;;2.63;2.03;;;;;;;5.48;86.49;101424.28;5034890;28;20028;-88
2023/03/29 02:56:03;;;;;;;3.10;2.47;;;;;;;5.49;86.42;101412.28;5028509;28;20046;-89
2023/03/29 02:58:30;;;;;;;4.37;2.30;;;;;;;5.52;87.75;101420.03;5014612;28;20469;-88
2023/03/29 03:00:59;;;;;;;5.50;2.53;;;;;;;5.55;86.10;101414.94;5012723;28;20113;-89
2023/03/29 03:03:27;;;;;;;4.40;2.50;;;;;;;5.53;86.15;101406.31;5014088;28;20384;-89
2023/03/29 03:05:53;;;;;;;3.78;2.40;;;;;;;5.55;86.22;101407.22;5013862;28;20026;-89
2023/03/29 03:08:19;;;;;;;4.63;2.33;;;;;;;5.54;86.14;101419.22;5013915;28;20098;-89
2023/03/29 03:10:44;;;;;;;3.38;2.33;;;;;;;5.59;86.00;101414.16;5013764;28;20026;-88
2023/03/29 03:13:10;;;;;;;4.43;2.40;;;;;;;5.59;85.76;101421.00;5014051;28;20061;-89
2023/03/29 03:15:36;;;;;;;4.90;2.45;;;;;;;5.63;85.96;101407.31;5013786;28;20057;-89
2023/03/29 03:18:03;;;;;;;2.92;2.30;;;;;;;5.64;85.73;101406.47;5013418;28;20030;-88
2023/03/29 03:20:28;;;;;;;3.88;2.20;;;;;;;5.65;85.71;101401.34;5013990;28;20099;-88
2023/03/29 03:22:56;;;;;;;3.20;2.30;;;;;;;5.68;85.43;101398.81;5013486;28;20498;-89
2023/03/29 03:25:21;;;;;;;3.50;2.30;;;;;;;5.76;85.42;101398.03;5028618;28;20087;-89
2023/03/29 03:27:47;;;;;;;3.83;2.47;;;;;;;5.69;85.41;101394.53;5033018;28;20392;-88
2023/03/29 03:30:14;;;;;;;3.22;2.30;;;;;;;5.70;85.54;101388.53;5033430;28;20457;-88
2023/03/29 03:32:40;;;;;;;;;;;;;;;5.73;85.07;101393.72;5033871;28;20021;-89
2023/03/29 03:35:06;;;;;;;5.07;2.57;;;;;;;5.74;85.24;101392.88;5033190;28;19917;-89
2023/03/29 03:37:31;;;;;;;4.35;2.22;;;;;;;5.73;85.05;101388.56;5033531;28;20083;-88
2023/03/29 03:39:57;;;;;;;2.40;1.90;;;;;;;5.70;85.50;101386.84;5032964;28;20513;-88
2023/03/29 03:42:22;;;;;;;3.65;2.20;;;;;;;5.76;84.92;101393.78;5033595;28;20018;-89
2023/03/29 03:44:48;;;;;;;2.67;2.33;;;;;;;5.73;84.99;101386.00;5033098;28;20022;-88
2023/03/29 03:47:13;;;;;;;3.20;2.07;;;;;;;5.76;85.28;101398.03;5033384;28;20017;-88
2023/03/29 03:49:39;;;;;;;2.63;2.05;;;;;;;5.76;85.08;101393.78;5033555;28;20786;-88
2023/03/29 03:52:05;;;;;;;3.00;2.10;;;;;;;5.76;85.06;101392.91;5033120;28;20028;-89
2023/03/29 03:54:33;;;;;;;1.70;1.60;;;;;;;5.76;85.23;101393.78;5033011;28;20045;-88
2023/03/29 03:56:58;;;;;;;1.95;1.70;;;;;;;5.74;85.11;101392.88;5032534;28;20140;-89
2023/03/29 03:59:25;;;;;;;2.20;1.53;;;;;;;5.76;84.87;101393.78;5034868;28;20053;-89
2023/03/29 04:01:51;;;;;;;1.92;1.70;;;;;;;5.77;84.86;101394.63;5037346;28;20393;-88
2023/03/29 04:04:18;;;;;;;1.67;1.57;;;;;;;5.79;85.07;101392.94;5037170;28;20033;-89
2023/03/29 04:06:43;;;;;;;2.05;1.70;;;;;;;5.78;84.97;101383.47;5036655;28;20315;-88
2023/03/29 04:09:09;;;;;;;1.90;1.70;;;;;;;5.80;84.79;101389.53;5037051;28;20053;-88
2023/03/29 04:11:34;;;;;;;1.67;1.50;;;;;;;5.80;84.99;101384.38;5037189;28;20032;-89
2023/03/29 04:14:00;;;;;;;2.08;1.88;;;;;;;5.78;84.67;101376.63;5036384;28;20057;-88
2023/03/29 04:16:26;;;;;;;3.10;1.90;;;;;;;5.80;84.87;101382.66;5037107;28;20088;-89
2023/03/29 04:18:52;;;;;;;3.22;1.85;;;;;;;5.83;84.65;101381.84;5036919;28;20045;-89
2023/03/29 04:21:20;;;;;;;2.50;1.80;;;;;;;5.81;84.58;101378.38;5036623;28;20109;-88
2023/03/29 04:23:46;;;;;;;1.80;1.70;;;;;;;5.83;84.42;101374.97;5036830;28;20022;-88
2023/03/29 04:26:13;;;;;;;2.08;1.77;;;;;;;5.84;84.57;101368.97;5037030;28;20037;-89
2023/03/29 04:28:39;;;;;;;3.33;1.88;;;;;;;5.88;84.52;101375.03;5036594;28;20030;-89
2023/03/29 04:31:13;;;;;;;3.08;2.08;;;;;;;5.88;84.59;101367.31;5036660;28;20033;-88
2023/03/29 04:33:38;;;;;;;1.95;1.75;;;;;;;5.97;84.66;101363.97;5036871;28;20030;-88
2023/03/29 04:36:04;;;;;;;2.97;2.20;;;;;;;5.88;84.28;101357.88;5036065;28;20029;-89
2023/03/29 04:38:30;;;;;;;3.17;2.25;;;;;;;5.89;83.95;101358.72;5036757;28;20020;-88
2023/03/29 04:40:55;;;;;;;3.25;2.15;;;;;;;5.91;84.26;101364.78;5036715;28;20030;-89
2023/03/29 04:43:22;;;;;;;3.43;2.30;;;;;;;5.90;84.18;101360.47;5036340;28;20060;-88
2023/03/29 04:45:48;;;;;;;2.08;1.88;;;;;;;5.92;84.91;101363.03;5035716;28;20092;-87
2023/03/29 04:48:13;;;;;;;3.00;2.37;;;;;;;5.91;84.27;101366.50;5036331;28;20531;-89
2023/03/29 04:50:38;;;;;;;3.93;2.40;;;;;;;5.94;84.20;101366.50;5036425;28;20025;-89
2023/03/29 04:53:10;;;;;;;4.78;2.40;;;;;;;5.98;84.02;101363.13;5036167;28;20378;-88
2023/03/29 04:55:35;;;;;;;2.88;2.10;;;;;;;5.95;83.96;101360.50;5035668;28;20041;-88
2023/03/29 04:58:01;;;;;;;4.07;2.30;;;;;;;5.98;84.07;101356.25;5032571;28;20026;-89
2023/03/29 05:00:27;;;;;;;3.97;2.40;;;;;;;5.97;83.96;101354.53;5016150;28;20104;-89
2023/03/29 05:02:52;;;;;;;2.60;2.17;;;;;;;6.00;84.00;101349.44;5015760;28;20495;-89
2023/03/29 05:05:18;;;;;;;3.42;2.22;;;;;;;6.01;84.21;101352.91;5016308;28;20113;-89
2023/03/29 05:07:44;;;;;;;2.20;1.93;;;;;;;5.99;84.25;101346.84;5016453;28;20061;-89
2023/03/29 05:10:09;;;;;;;2.97;2.03;;;;;;;6.02;84.25;101349.50;5015298;28;20026;-89
2023/03/29 05:12:35;;;;;;;2.72;1.95;;;;;;;6.06;84.08;101351.22;5016203;28;20029;-89
2023/03/29 05:15:01;;;;;;;2.75;1.92;;;;;;;6.07;84.25;101349.53;5016002;28;20033;-89
2023/03/29 05:17:26;;;;;;;2.17;1.77;;;;;;;6.08;84.23;101354.69;5016067;28;20029;-89
2023/03/29 05:19:53;;;;;;;2.25;1.85;;;;;;;6.10;84.24;101347.84;5017681;28;20022;-89
2023/03/29 05:22:19;;;;;;;4.18;1.92;;;;;;;6.11;84.16;101340.97;5036001;28;20381;-87
2023/03/29 05:24:44;;;;;;;3.83;2.33;;;;;;;6.13;84.21;101349.59;5035731;28;20028;-89
2023/03/29 05:27:09;;;;;;;3.03;2.00;;;;;;;6.12;83.85;101341.00;5035964;28;20389;-90
2023/03/29 05:29:35;;;;;;;3.27;2.30;;;;;;;6.15;84.34;101345.31;5036032;28;20025;-89
2023/03/29 05:32:01;;;;;;;4.80;2.20;;;;;;;6.17;84.39;101353.94;5034867;28;20021;-89
2023/03/29 05:34:26;;;;;;;3.28;2.15;;;;;;;6.20;83.96;101355.69;5035990;28;20030;-90
2023/03/29 05:36:51;;;;;;;2.57;2.13;;;;;;;6.19;84.19;101360.00;5036070;28;20025;-90
2023/03/29 05:39:17;;;;;;;3.53;2.23;;;;;;;6.24;84.82;101360.03;5035697;28;20024;-90
2023/03/29 05:41:42;;;;;;;3.83;2.40;;;;;;;6.27;84.18;101365.19;5035397;28;20112;-89
2023/03/29 05:44:08;;;;;;;3.08;2.15;;;;;;;6.31;83.98;101367.81;5035497;28;20021;-89
2023/03/29 05:46:33;;;;;;;3.17;2.27;;;;;;;6.36;84.24;101360.13;5035047;28;20109;-89
2023/03/29 05:48:59;;;;;;;4.07;2.20;;;;;;;6.38;84.12;101363.59;5035606;28;20018;-90
2023/03/29 05:51:24;;;;;;;4.18;2.40;;;;;;;6.40;84.14;101361.06;5034998;28;20026;-89
2023/03/29 05:53:50;;;;;;;4.03;2.30;;;;;;;6.44;83.98;101367.97;5035252;28;20033;-89
2023/03/29 05:56:17;;;;;;;2.73;2.10;;;;;;;6.42;84.25;101364.50;5035283;28;20405;-90
2023/03/29 05:58:44;;;;;;;4.43;2.50;;;;;;;6.47;84.52;101370.56;5035508;28;20030;-90
2023/03/29 06:01:12;;;;;;;3.72;2.60;;;;;;;6.50;83.97;101370.63;5035504;28;20033;-90
2023/03/29 06:03:37;;;;;;;2.83;2.10;;;;;;;6.52;84.10;101365.47;5035403;28;20018;-90
2023/03/29 06:06:03;;;;;;;4.23;2.40;;;;;;;6.53;84.53;101369.78;5034655;28;20119;-89
2023/03/29 06:08:30;;;;;;;2.30;2.00;;;;;;;6.54;83.97;101363.78;5035063;28;20112;-90
2023/03/29 06:10:57;;;;;;;3.13;2.13;;;;;;;6.58;84.17;101365.53;5035040;28;20041;-89
2023/03/29 06:13:26;;;;;;;3.63;2.30;;;;;;;6.62;84.47;101363.00;5034947;28;20492;-89
2023/03/29 06:15:51;;;;;;;4.35;2.50;;;;;;;6.64;84.41;101369.00;5035012;28;20099;-89
2023/03/29 06:18:16;;;;;;;3.83;2.20;;;;;;;6.69;83.85;101369.09;5030278;28;20053;-90
2023/03/29 06:20:42;;;;;;;4.20;2.23;;;;;;;6.71;84.21;101369.94;5015123;28;20049;-89
2023/03/29 06:23:07;;;;;;;3.93;2.10;;;;;;;6.74;84.14;101366.53;5013847;28;20026;-90
2023/03/29 06:25:33;;;;;;;3.38;2.30;;;;;;;6.75;84.69;101370.84;5015463;28;20028;-90
2023/03/29 06:27:58;;;;;;;4.20;2.30;;;;;;;6.76;84.65;101372.56;5014055;28;20030;-90
2023/03/29 06:30:23;;;;;;;3.92;2.00;;;;;;;6.83;84.11;101376.06;5014805;28;20464;-89
2023/03/29 06:32:49;;;;;;;2.55;2.00;;;;;;;6.85;83.94;101376.94;5015224;28;20354;-88
2023/03/29 06:35:14;;;;;;;4.15;2.38;;;;;;;6.87;83.85;101367.50;5014696;28;20025;-91
2023/03/29 06:37:41;;;;;;;2.60;2.10;;;;;;;6.90;84.28;101380.44;5013997;28;20034;-87
2023/03/29 06:40:08;;;;;;;4.13;2.20;;;;;;;6.93;83.85;101364.97;5013841;28;20033;-91
2023/03/29 06:42:34;;;;;;;3.97;2.45;;;;;;;6.94;85.37;101365.00;5023010;28;20082;-87
2023/03/29 06:45:09;;;;;;;3.73;2.20;;;;;;;6.95;84.60;101359.00;5048048;28;20013;-89
2023/03/29 06:47:34;;;;;;;3.10;2.03;;;;;;;6.99;85.53;101356.41;5041511;28;20041;-84
2023/03/29 06:50:00;;;;;;;2.90;2.17;;;;;;;7.04;84.30;101368.50;5055517;28;20048;-89
2023/03/29 06:52:25;;;;;;;2.93;2.20;;;;;;;7.08;84.37;101366.81;5055103;28;20025;-90
2023/03/29 06:54:51;;;;;;;3.03;2.20;;;;;;;7.11;84.59;101361.66;5053810;28;20045;-90
2023/03/29 06:57:16;;;;;;;2.97;2.20;;;;;;;7.16;85.30;101366.84;5054495;28;20029;-90
2023/03/29 06:59:41;;;;;;;5.10;2.23;;;;;;;7.20;85.85;101366.91;5054656;28;20103;-90
2023/03/29 07:02:16;;;;;;;2.73;2.10;;;;;;;7.26;84.97;101366.94;5053980;28;20040;-90
2023/03/29 07:04:41;;;;;;;3.20;2.03;;;;;;;7.32;85.98;101370.44;5054301;28;20025;-90
2023/03/29 07:07:11;;;;;;;2.73;2.10;;;;;;;7.38;84.78;101370.47;5053928;28;20032;-90
2023/03/29 07:09:38;;;;;;;3.53;2.08;;;;;;;7.44;84.41;101367.06;5054243;28;20415;-90
2023/03/29 07:12:04;;;;;;;2.38;1.80;;;;;;;7.44;84.74;101370.50;5053905;28;20029;-90
2023/03/29 07:14:30;;;;;;;2.73;1.90;;;;;;;7.51;84.65;101382.59;5053633;28;20370;-90
2023/03/29 07:16:57;;;;;;;2.77;1.93;;;;;;;7.48;85.15;101363.66;5053660;28;20048;-90
2023/03/29 07:19:26;;;;;;;;;;;;;;;7.54;85.15;101382.59;5054586;28;20021;-89
2023/03/29 07:21:52;;;;;;;1.98;1.77;;;;;;;7.55;84.51;101384.34;5053586;28;19935;-89
2023/03/29 07:24:18;;;;;;;2.67;1.80;;;;;;;7.59;84.77;101374.91;5052494;28;20017;-89
2023/03/29 07:26:45;;;;;;;2.42;1.60;;;;;;;7.63;85.12;101386.13;5053954;28;20040;-90
2023/03/29 07:29:10;;;;;;;2.28;1.60;;;;;;;7.65;84.92;101385.25;5053717;28;20029;-90
2023/03/29 07:31:39;;;;;;;2.17;1.70;;;;;;;7.69;84.83;101389.59;5053047;28;20021;-90
2023/03/29 07:34:05;;;;;;;2.05;1.48;;;;;;;7.72;85.14;101393.91;5053026;28;20472;-87
2023/03/29 07:36:33;;;;;;;2.00;1.80;;;;;;;7.74;84.87;101394.78;5052932;28;20362;-88
2023/03/29 07:39:00;;;;;;;1.98;1.60;;;;;;;7.70;85.19;101380.13;5052392;28;20263;-87
2023/03/29 07:41:26;;;;;;;;;;;;;;;7.80;84.97;101401.72;5053546;28;20025;-87
2023/03/29 07:43:51;;;;;;;2.63;1.80;;;;;;;7.80;85.34;101404.28;5052158;28;19920;-86
2023/03/29 07:46:16;;;;;;;3.83;2.10;;;;;;;7.82;85.70;101412.94;5047356;28;20104;-87
2023/03/29 07:48:41;;;;;;;2.20;1.90;;;;;;;7.83;85.41;101409.47;5033009;28;20022;-86
2023/03/29 07:51:07;;;;;;;2.93;2.13;;;;;;;7.84;84.96;101411.19;5032042;28;20017;-86
2023/03/29 07:53:32;;;;;;;3.50;2.00;;;;;;;7.88;85.58;101418.97;5033187;28;20514;-87
2023/03/29 07:55:57;;;;;;;2.03;1.80;;;;;;;7.91;85.76;101412.09;5041484;28;20045;-87
2023/03/29 07:58:23;;;;;;;2.30;2.00;;;;;;;7.91;85.88;101412.09;5032577;28;20029;-87
2023/03/29 08:00:49;;;;;;;2.50;1.90;;;;;;;7.93;85.36;101415.56;5032499;28;20422;-87
2023/03/29 08:03:15;;;;;;;5.38;2.40;;;;;;;7.94;86.42;101414.69;5032602;28;20032;-86
2023/03/29 08:05:40;;;;;;;4.30;2.30;;;;;;;7.95;87.39;101411.25;5032330;28;20382;-87
2023/03/29 08:08:06;;;;;;;3.97;2.27;;;;;;;7.98;85.33;101406.13;5032805;28;20384;-87
2023/03/29 08:10:33;;;;;;;3.25;2.50;;;;;;;8.00;85.55;101410.41;5032905;28;20076;-88
2023/03/29 08:12:59;;;;;;;5.05;2.70;;;;;;;8.04;85.35;101403.53;5032344;28;20095;-88
2023/03/29 08:15:25;;;;;;;5.67;2.80;;;;;;;8.09;85.57;101416.47;5033100;28;20025;-88
2023/03/29 08:17:50;;;;;;;3.72;2.60;;;;;;;8.12;86.09;101411.34;5032672;28;20029;-87
2023/03/29 08:20:15;;;;;;;3.87;2.43;;;;;;;8.16;88.67;101413.09;5031584;28;20360;-88
2023/03/29 08:22:41;;;;;;;4.87;2.60;;;;;;;8.16;88.01;101423.44;5012908;28;20022;-85
2023/03/29 08:25:08;;;;;;;4.32;2.60;;;;;;;8.19;87.46;101408.78;5013178;28;20018;-89
2023/03/29 08:27:34;;;;;;;3.60;2.50;;;;;;;8.25;88.80;101412.22;5012522;28;20026;-89
2023/03/29 08:30:03;;;;;;;3.00;2.37;;;;;;;8.28;88.52;101407.94;5012916;28;20026;-88
2023/03/29 08:32:30;;;;;;;4.30;2.60;;;;;;;8.34;88.14;101394.16;5013215;28;20026;-86
2023/03/29 08:34:56;;;;;;;5.30;2.58;;;;;;;8.38;87.89;101382.97;5012895;28;20042;-87
2023/03/29 08:37:23;;;;;;;3.57;2.50;;;;;;;8.49;87.49;101395.97;5012439;28;20079;-87
2023/03/29 08:39:48;;;;;;;6.25;3.13;;;;;;;8.62;87.63;101394.25;5012294;28;20022;-87
2023/03/29 08:42:41;;;;;;;6.13;3.27;;;;;;;8.68;88.53;101391.66;5022205;28;20026;-87
2023/03/29 08:45:30;;;;;;;5.57;3.17;;;;;;;8.75;88.94;101385.66;5031700;28;20032;-87
2023/03/29 08:48:27;;;;;;;5.07;2.85;;;;;;;8.85;90.29;101396.88;5034970;28;20056;-87
2023/03/29 08:50:57;;;;;;;4.90;2.63;;;;;;;8.92;88.47;101392.56;5033838;28;20485;-87
2023/03/29 08:53:31;;;;;;;4.47;2.72;;;;;;;9.02;87.34;101396.88;5036273;28;20371;-87
2023/03/29 08:56:00;;;;;;;9.00;3.90;;;;;;;9.11;87.40;101385.66;5034792;28;20141;-87
2023/03/29 08:58:30;;;;;;;6.10;3.00;;;;;;;9.20;88.67;101392.56;5035725;28;20034;-87
2023/03/29 09:00:58;;;;;;;4.97;2.97;;;;;;;9.30;87.85;101391.69;5039583;28;20077;-87
2023/03/29 09:03:28;;;;;;;7.22;3.10;;;;;;;9.39;89.13;101381.31;5041813;28;20171;-88
2023/03/29 09:06:02;;;;;;;4.97;2.70;;;;;;;9.57;87.18;101384.72;5035601;28;20055;-87
2023/03/29 09:08:28;;;;;;;7.13;3.42;;;;;;;9.68;86.86;101382.09;5034708;28;20076;-86
2023/03/29 09:11:14;;;;;;;5.33;3.10;;;;;;;9.74;86.69;101382.06;5034984;28;20029;-86
2023/03/29 09:14:01;;;;;;;10.18;3.90;;;;;;;9.79;86.85;101379.50;5019800;28;20053;-86
2023/03/29 09:16:59;;;;;;;8.57;3.70;;;;;;;9.76;88.02;101374.31;5014529;28;20030;-86
2023/03/29 09:19:36;;;;;;;6.03;3.15;;;;;;;9.78;88.44;101382.97;5015346;28;20025;-85
2023/03/29 09:22:19;;;;;;;6.10;3.33;;;;;;;9.80;86.94;101387.25;5014995;28;20036;-84
2023/03/29 09:25:11;;;;;;;5.38;3.15;;;;;;;9.79;88.13;101401.09;5015238;28;20029;-85
2023/03/29 09:28:08;;;;;;;5.07;3.05;;;;;;;9.81;87.45;101393.28;5015200;28;20168;-86
2023/03/29 09:30:40;;;;;;;6.97;3.38;;;;;;;9.80;88.25;101387.25;5014391;28;20056;-86
2023/03/29 09:33:20;;;;;;;6.63;3.33;;;;;;;9.81;88.99;101386.41;5014941;28;20091;-87
2023/03/29 09:35:51;;;;;;;7.82;3.80;;;;;;;9.81;87.92;101393.28;5015172;28;20026;-87
2023/03/29 09:38:17;;;;;;;7.03;3.42;;;;;;;9.77;89.65;101392.44;5014612;28;20108;-87
2023/03/29 09:40:50;;;;;;;7.13;3.47;;;;;;;9.80;88.43;101396.75;5015466;28;20029;-89
2023/03/29 09:43:24;;;;;;;8.18;3.60;;;;;;;9.79;88.22;101382.94;5042440;22;20045;-90
2023/03/29 09:45:54;;;;;;;7.85;3.35;;;;;;;9.82;89.84;101390.72;5034987;28;20017;-86
2023/03/29 09:48:20;;;;;;;6.90;3.20;;;;;;;9.82;88.63;101388.13;5035088;28;20028;-89
2023/03/29 09:50:50;;;;;;;6.18;3.20;;;;;;;9.82;88.38;101389.84;5035274;28;20084;-92
2023/03/29 09:53:20;;;;;;;4.97;3.03;;;;;;;9.77;88.90;101371.72;5035485;28;20041;-90
2023/03/29 09:55:48;;;;;;;5.78;3.00;;;;;;;9.97;89.36;101383.72;5034595;28;20025;-87
2023/03/29 09:58:21;;;;;;;5.93;2.95;;;;;;;10.14;91.86;101387.13;5033974;28;20053;-87
2023/03/29 10:00:47;;;;;;;4.13;2.70;;;;;;;10.23;91.67;101388.81;5034145;28;20025;-87
2023/03/29 10:03:18;;;;;;;4.97;2.90;;;;;;;10.23;90.68;101391.41;5034743;28;20040;-87
2023/03/29 10:05:45;;;;;;;6.13;3.15;;;;;;;10.19;90.96;101394.88;5033965;28;20473;-87
2023/03/29 10:08:21;;;;;;;7.75;3.70;;;;;;;10.21;88.18;101398.34;5044494;28;20077;-86
2023/03/29 10:10:49;;;;;;;7.40;3.80;;;;;;;10.17;89.22;101391.41;5044313;28;20105;-87
2023/03/29 10:13:26;;;;;;;6.75;3.30;;;;;;;10.18;88.89;101377.59;5034274;28;20023;-88
2023/03/29 10:16:01;;;;;;;7.97;3.75;;;;;;;10.23;90.50;101394.00;5034124;28;20358;-87
2023/03/29 10:18:30;;;;;;;6.13;3.10;;;;;;;10.29;89.29;101393.97;5034524;28;20064;-86
2023/03/29 10:20:58;;;;;;;6.30;3.33;;;;;;;10.30;90.48;101384.47;5031928;28;20028;-86
2023/03/29 10:23:30;;;;;;;6.10;3.15;;;;;;;10.32;89.84;101377.50;5033878;28;20473;-87
2023/03/29 10:25:56;;;;;;;6.57;3.60;;;;;;;10.47;88.98;101387.00;5032958;28;20052;-87
2023/03/29 10:28:23;;;;;;;7.37;4.30;;;;;;;10.35;90.93;101380.97;5033859;28;20034;-87
2023/03/29 10:30:54;;;;;;;7.10;4.00;;;;;;;10.28;90.40;101376.66;5033673;28;20424;-86
2023/03/29 10:33:26;;;;;;;5.93;3.50;;;;;;;10.24;89.90;101374.09;5033340;28;20033;-87
2023/03/29 10:35:54;;;;;;;7.72;3.80;;;;;;;10.22;91.44;101362.88;5033132;28;20021;-87
2023/03/29 10:38:23;;;;;;;6.45;3.70;;;;;;;10.27;89.93;101363.72;5033757;28;20034;-87
2023/03/29 10:40:57;;;;;;;7.40;3.65;;;;;;;10.40;90.02;101368.00;5024610;28;20485;-86
2023/03/29 10:43:37;;;;;;;7.40;3.78;;;;;;;10.49;92.51;101367.06;5012158;28;20042;-86
2023/03/29 10:46:12;;;;;;;5.70;3.20;;;;;;;10.60;91.82;101360.06;5013414;28;20478;-87
2023/03/29 10:48:38;;;;;;;6.60;3.20;;;;;;;10.76;93.28;101353.00;5012830;28;20026;-86
2023/03/29 10:51:04;;;;;;;;;;;;;;;10.98;91.04;101347.63;5013127;28;20092;-87
2023/03/29 10:53:36;;;;;;;6.05;3.45;;;;;;;11.16;91.73;101343.16;5013719;28;19909;-88
2023/03/29 10:56:26;;;;;;;6.80;3.80;;;;;;;11.33;91.37;101336.06;5013789;28;20097;-89
2023/03/29 10:59:23;;;;;;;7.28;4.13;;;;;;;11.55;88.98;101336.69;5013788;28;20044;-90
2023/03/29 11:02:13;;;;;;;11.25;4.63;;;;;;;11.77;89.93;101320.81;5012539;28;20051;-86
2023/03/29 11:04:47;;;;;;;7.68;4.13;;;;;;;11.96;90.37;101324.06;5019085;28;20033;-87
2023/03/29 11:07:41;;;;;;;7.07;3.78;;;;;;;12.11;89.16;101327.34;5029982;28;20389;-87
2023/03/29 11:10:19;;;;;;;4.88;3.30;;;;;;;12.23;87.87;101324.56;5029420;28;20440;-87
2023/03/29 11:12:50;;;;;;;6.70;3.72;;;;;;;12.37;87.99;101311.38;5040105;28;20053;-86
2023/03/29 11:15:34;;;;;;;4.35;3.10;;;;;;;12.53;88.08;101322.41;5047466;28;20022;-87
2023/03/29 11:18:22;;;;;;;5.13;3.60;;;;;;;12.66;86.71;101310.03;5041297;28;20384;-89
2023/03/29 11:21:09;;;;;;;6.25;3.50;;;;;;;12.86;87.04;101298.41;5040652;28;20377;-85
2023/03/29 11:23:48;;;;;;;5.55;3.20;;;;;;;13.01;86.78;101297.28;5040284;28;20075;-86
2023/03/29 11:26:21;;;;;;;4.00;2.90;;;;;;;13.10;86.26;101291.91;5042244;28;20051;-86
2023/03/29 11:29:15;;;;;;;4.45;3.00;;;;;;;13.19;85.59;101298.69;5037570;28;20207;-85
2023/03/29 11:31:52;;;;;;;5.38;3.15;;;;;;;13.26;85.51;101302.91;5025226;28;20022;-85
2023/03/29 11:34:48;;;;;;;5.05;2.92;;;;;;;13.32;85.21;101313.19;5031490;28;20026;-86
2023/03/29 11:37:32;;;;;;;4.50;2.95;;;;;;;13.42;84.60;101324.34;5025179;28;20037;-86
2023/03/29 11:40:24;;;;;;;5.55;2.90;;;;;;;13.49;85.00;101320.72;5016087;28;20428;-85
2023/03/29 11:42:54;;;;;;;7.80;3.58;;;;;;;13.57;83.43;101315.38;5016667;28;20488;-86
2023/03/29 11:45:33;;;;;;;6.95;3.78;;;;;;;13.51;81.67;101312.91;5029247;28;20044;-86
2023/03/29 11:48:01;;;;;;;6.22;3.60;;;;;;;13.48;82.74;101318.16;5030895;28;20060;-86